createdAt,value
2023-02-11T00:00:40.523Z,38.30
2023-02-11T00:03:10.155Z,38.55
2023-02-11T00:05:38.132Z,36.10
2023-02-11T00:08:06.580Z,37.85
2023-02-11T00:10:34.487Z,37.10
2023-02-11T00:13:02.386Z,35.63
2023-02-11T00:15:30.306Z,39.47
2023-02-11T00:17:58.136Z,38.67
2023-02-11T00:20:27.390Z,38.88
2023-02-11T00:22:55.211Z,38.25
2023-02-11T00:25:23.022Z,35.97
2023-02-11T00:27:50.924Z,32.72
2023-02-11T00:30:18.845Z,39.70
2023-02-11T00:32:46.897Z,36.95
2023-02-11T00:35:14.836Z,39.38
2023-02-11T00:37:44.030Z,37.88
2023-02-11T00:40:12.859Z,34.67
2023-02-11T00:42:40.718Z,38.17
2023-02-11T00:45:10.112Z,34.97
2023-02-11T00:47:38.470Z,38.90
2023-02-11T00:50:08.390Z,38.08
2023-02-11T00:52:36.801Z,38.63
2023-02-11T00:55:06.901Z,37.20
2023-02-11T00:57:35.283Z,37.78
2023-02-11T01:00:03.871Z,39.25
2023-02-11T01:02:32.213Z,33.00
2023-02-11T01:05:00.864Z,36.63
2023-02-11T01:07:29.657Z,35.30
2023-02-11T01:09:58.019Z,33.83
2023-02-11T01:12:27.426Z,38.10
2023-02-11T01:14:55.310Z,36.15
2023-02-11T01:17:23.256Z,36.33
2023-02-11T01:19:51.121Z,40.20
2023-02-11T01:22:19.222Z,37.25
2023-02-11T01:24:48.612Z,40.22
2023-02-11T01:27:16.436Z,41.67
2023-02-11T01:29:47.124Z,35.28
2023-02-11T01:32:14.987Z,37.40
2023-02-11T01:34:42.843Z,40.83
2023-02-11T01:37:10.754Z,36.30
2023-02-11T01:39:38.725Z,40.00
2023-02-11T01:42:07.293Z,43.13
2023-02-11T01:44:39.072Z,37.35
2023-02-11T01:47:08.373Z,36.30
2023-02-11T01:49:39.790Z,38.08
2023-02-11T01:52:13.854Z,41.15
2023-02-11T01:55:02.527Z,35.80
2023-02-11T01:57:33.308Z,35.67
2023-02-11T02:00:09.458Z,37.20
2023-02-11T02:02:53.722Z,39.47
2023-02-11T02:05:30.168Z,38.85
2023-02-11T02:08:06.009Z,35.45
2023-02-11T02:13:03.010Z,34.88
2023-02-11T02:15:33.108Z,35.10
2023-02-11T02:18:16.143Z,35.30
2023-02-11T02:21:14.373Z,39.30
2023-02-11T02:24:35.782Z,34.60
2023-02-11T02:27:42.206Z,36.70
2023-02-11T02:30:41.567Z,36.22
2023-02-11T02:33:44.742Z,34.60
2023-02-11T02:36:21.049Z,34.28
2023-02-11T02:38:55.001Z,37.58
2023-02-11T02:41:26.150Z,34.30
2023-02-11T02:43:54.994Z,37.45
2023-02-11T02:46:25.213Z,37.67
2023-02-11T02:48:54.285Z,37.83
2023-02-11T02:52:01.069Z,36.80
2023-02-11T02:55:13.348Z,34.20
2023-02-11T02:57:58.719Z,34.92
2023-02-11T03:00:33.206Z,41.13
2023-02-11T03:03:16.734Z,34.75
2023-02-11T03:05:54.134Z,37.95
2023-02-11T03:08:29.921Z,34.95
2023-02-11T03:13:33.443Z,33.78
2023-02-11T03:16:05.783Z,39.50
2023-02-11T03:18:37.015Z,34.88
2023-02-11T03:21:08.447Z,37.03
2023-02-11T03:23:40.938Z,31.83
2023-02-11T03:26:15.997Z,20.83
2023-02-11T03:28:47.900Z,37.58
2023-02-11T03:31:20.377Z,31.60
2023-02-11T03:33:56.733Z,29.85
2023-02-11T03:36:29.715Z,30.05
2023-02-11T03:39:01.539Z,31.92
2023-02-11T03:41:31.430Z,32.92
2023-02-11T03:44:00.502Z,29.73
2023-02-11T03:46:33.484Z,35.90
2023-02-11T03:49:06.244Z,31.80
2023-02-11T03:51:34.828Z,31.35
2023-02-11T03:54:07.337Z,32.90
2023-02-11T03:56:42.276Z,35.75
2023-02-11T03:59:10.065Z,31.57
2023-02-11T04:01:37.942Z,31.90
2023-02-11T04:04:06.408Z,34.63
2023-02-11T04:06:34.214Z,34.30
2023-02-11T04:09:02.147Z,31.83
2023-02-11T04:11:31.304Z,31.52
2023-02-11T04:13:59.154Z,35.00
2023-02-11T04:16:28.113Z,32.13
2023-02-11T04:18:55.970Z,33.35
2023-02-11T04:21:24.135Z,36.38
2023-02-11T04:23:51.956Z,36.70
2023-02-11T04:26:19.818Z,33.83
2023-02-11T04:28:49.003Z,31.95
2023-02-11T04:31:16.925Z,34.22
2023-02-11T04:33:44.744Z,34.97
2023-02-11T04:36:12.589Z,42.30
2023-02-11T04:38:40.502Z,39.95
2023-02-11T04:41:08.324Z,41.88
2023-02-11T04:43:36.255Z,41.72
2023-02-11T04:46:05.701Z,41.60
2023-02-11T04:48:34.820Z,38.20
2023-02-11T04:51:02.786Z,38.90
2023-02-11T04:53:30.594Z,42.25
2023-02-11T04:55:59.221Z,38.63
2023-02-11T04:58:27.824Z,37.75
2023-02-11T05:00:56.019Z,39.85
2023-02-11T05:03:25.215Z,40.75
2023-02-11T05:05:53.272Z,40.00
2023-02-11T05:08:21.264Z,36.03
2023-02-11T05:10:49.130Z,37.95
2023-02-11T05:13:16.901Z,38.33
2023-02-11T05:15:45.070Z,39.33
2023-02-11T05:18:14.825Z,38.35
2023-02-11T05:20:45.020Z,39.05
2023-02-11T05:23:13.177Z,38.60
2023-02-11T05:25:41.054Z,41.42
2023-02-11T05:28:08.888Z,37.67
2023-02-11T05:30:36.752Z,43.47
2023-02-11T05:33:07.917Z,39.20
2023-02-11T05:35:36.031Z,38.95
2023-02-11T05:38:05.217Z,34.83
2023-02-11T05:40:33.179Z,42.75
2023-02-11T05:43:01.336Z,60.47
2023-02-11T05:45:29.708Z,47.75
2023-02-11T05:47:58.395Z,42.47
2023-02-11T05:50:26.869Z,43.60
2023-02-11T05:52:54.821Z,39.67
2023-02-11T05:55:24.453Z,32.70
2023-02-11T05:57:53.605Z,33.70
2023-02-11T06:00:21.846Z,37.67
2023-02-11T06:02:50.301Z,34.70
2023-02-11T06:05:18.392Z,39.10
2023-02-11T06:07:46.233Z,36.33
2023-02-11T06:10:14.177Z,35.45
2023-02-11T06:12:44.753Z,36.65
2023-02-11T06:15:13.075Z,34.25
2023-02-11T06:17:40.945Z,36.80
2023-02-11T06:20:10.778Z,35.35
2023-02-11T06:22:38.688Z,31.08
2023-02-11T06:25:07.424Z,35.83
2023-02-11T06:27:35.670Z,36.13
2023-02-11T06:30:06.309Z,35.25
2023-02-11T06:32:43.912Z,35.67
2023-02-11T06:35:13.846Z,30.20
2023-02-11T06:37:42.074Z,34.78
2023-02-11T06:40:10.338Z,32.08
2023-02-11T06:42:39.689Z,31.45
2023-02-11T06:45:11.219Z,31.20
2023-02-11T06:47:40.065Z,31.33
2023-02-11T06:50:10.544Z,32.25
2023-02-11T06:52:38.541Z,31.70
2023-02-11T06:55:07.018Z,35.10
2023-02-11T06:57:34.808Z,33.03
2023-02-11T07:00:02.765Z,35.40
2023-02-11T07:02:32.099Z,35.85
2023-02-11T07:04:59.942Z,34.53
2023-02-11T07:07:28.819Z,33.05
2023-02-11T07:09:56.732Z,31.63
2023-02-11T07:12:24.627Z,28.67
2023-02-11T07:14:52.964Z,31.27
2023-02-11T07:17:20.794Z,28.30
2023-02-11T07:19:50.019Z,29.40
2023-02-11T07:22:17.923Z,29.35
2023-02-11T07:24:46.338Z,33.17
2023-02-11T07:27:14.187Z,30.65
2023-02-11T07:29:43.448Z,28.27
2023-02-11T07:32:11.364Z,30.67
2023-02-11T07:34:39.224Z,28.75
2023-02-11T07:37:08.853Z,32.38
2023-02-11T07:39:36.688Z,29.23
2023-02-11T07:42:05.028Z,30.17
2023-02-11T07:44:33.249Z,29.48
2023-02-11T07:47:01.281Z,28.45
2023-02-11T07:49:29.338Z,32.00
2023-02-11T07:51:57.186Z,30.20
2023-02-11T07:54:26.388Z,30.95
2023-02-11T07:56:54.594Z,31.55
2023-02-11T07:59:22.456Z,33.47
2023-02-11T08:01:51.439Z,32.95
2023-02-11T08:04:19.567Z,29.85
2023-02-11T08:06:47.496Z,31.13
2023-02-11T08:09:17.442Z,33.75
2023-02-11T08:11:46.871Z,31.13
2023-02-11T08:14:14.719Z,30.60
2023-02-11T08:16:42.823Z,29.85
2023-02-11T08:19:13.570Z,28.98
2023-02-11T08:21:42.011Z,30.55
2023-02-11T08:24:10.372Z,34.83
2023-02-11T08:26:38.741Z,29.52
2023-02-11T08:29:11.607Z,31.35
2023-02-11T08:31:42.911Z,31.60
2023-02-11T08:34:11.638Z,29.33
2023-02-11T08:36:40.946Z,31.30
2023-02-11T08:39:19.288Z,32.42
2023-02-11T08:41:49.394Z,28.83
2023-02-11T08:44:18.703Z,31.33
2023-02-11T08:46:46.612Z,32.05
2023-02-11T08:49:15.046Z,28.90
2023-02-11T08:51:43.866Z,32.75
2023-02-11T08:54:12.426Z,27.83
2023-02-11T08:56:40.686Z,31.52
2023-02-11T08:59:10.140Z,33.28
2023-02-11T09:01:39.488Z,31.60
2023-02-11T09:04:07.753Z,30.05
2023-02-11T09:06:35.594Z,31.05
2023-02-11T09:09:03.597Z,30.48
2023-02-11T09:11:33.530Z,29.77
2023-02-11T09:14:02.217Z,29.73
2023-02-11T09:16:31.706Z,29.17
2023-02-11T09:19:02.879Z,31.80
2023-02-11T09:21:31.402Z,29.98
2023-02-11T09:23:59.285Z,28.38
2023-02-11T09:26:28.800Z,30.67
2023-02-11T09:28:57.009Z,31.70
2023-02-11T09:31:27.592Z,34.47
2023-02-11T09:33:58.246Z,31.15
2023-02-11T09:36:29.948Z,25.00
2023-02-11T09:39:00.551Z,31.00
2023-02-11T09:41:50.290Z,31.95
2023-02-11T09:44:21.162Z,37.80
2023-02-11T09:46:54.715Z,31.65
2023-02-11T09:49:28.239Z,29.83
2023-02-11T09:52:02.669Z,33.03
2023-02-11T09:54:35.397Z,31.13
2023-02-11T09:57:03.267Z,29.35
2023-02-11T09:59:31.466Z,27.17
2023-02-11T10:02:03.653Z,28.88
2023-02-11T10:04:51.020Z,29.30
2023-02-11T10:07:27.602Z,27.55
2023-02-11T10:10:08.721Z,30.90
2023-02-11T10:12:49.713Z,27.83
2023-02-11T10:15:26.255Z,31.10
2023-02-11T10:18:05.721Z,28.92
2023-02-11T10:20:37.767Z,33.13
2023-02-11T10:23:16.877Z,35.83
2023-02-11T10:25:47.789Z,29.77
2023-02-11T10:28:18.288Z,30.75
2023-02-11T10:31:00.483Z,31.08
2023-02-11T10:33:34.343Z,31.05
2023-02-11T10:36:02.641Z,30.35
2023-02-11T10:38:32.997Z,43.78
2023-02-11T10:41:00.857Z,31.20
2023-02-11T10:43:31.560Z,35.25
2023-02-11T10:46:01.508Z,34.80
2023-02-11T10:48:44.943Z,34.67
2023-02-11T10:51:20.829Z,30.65
2023-02-11T10:53:51.665Z,29.40
2023-02-11T10:56:27.287Z,29.05
2023-02-11T11:01:38.378Z,27.10
2023-02-11T11:04:07.556Z,25.75
2023-02-11T11:06:36.296Z,27.95
2023-02-11T11:09:05.772Z,28.38
2023-02-11T11:11:33.589Z,27.00
2023-02-11T11:14:03.242Z,31.67
2023-02-11T11:16:39.569Z,32.53
2023-02-11T11:19:24.316Z,26.02
2023-02-11T11:21:54.313Z,55.92
2023-02-11T11:24:29.845Z,32.50
2023-02-11T11:27:07.201Z,36.97
2023-02-11T11:29:40.893Z,28.35
2023-02-11T11:32:19.551Z,30.83
2023-02-11T11:34:52.496Z,31.42
2023-02-11T11:37:35.051Z,28.25
2023-02-11T11:40:23.487Z,29.02
2023-02-11T11:43:10.945Z,30.98
2023-02-11T11:45:41.006Z,30.17
2023-02-11T11:48:22.067Z,27.27
2023-02-11T11:50:59.510Z,26.48
2023-02-11T11:53:37.592Z,29.92
2023-02-11T11:56:18.836Z,30.05
2023-02-11T11:58:46.916Z,34.35
2023-02-11T12:01:28.179Z,25.90
2023-02-11T12:04:15.779Z,25.65
2023-02-11T12:06:56.272Z,30.27
2023-02-11T12:09:33.434Z,29.90
2023-02-11T12:12:26.383Z,27.58
2023-02-11T12:15:04.182Z,28.60
2023-02-11T12:17:49.186Z,30.27
2023-02-11T12:20:32.543Z,27.38
2023-02-11T12:23:21.887Z,30.58
2023-02-11T12:25:58.263Z,31.50
2023-02-11T12:28:41.753Z,31.95
2023-02-11T12:31:24.998Z,32.35
2023-02-11T12:34:06.827Z,27.77
2023-02-11T12:36:54.343Z,26.70
2023-02-11T12:39:33.810Z,27.73
2023-02-11T12:42:43.905Z,25.55
2023-02-11T12:45:27.482Z,26.92
2023-02-11T12:48:09.452Z,28.90
2023-02-11T12:50:50.559Z,31.40
2023-02-11T12:53:37.872Z,32.13
2023-02-11T12:56:21.928Z,27.77
2023-02-11T12:58:58.761Z,29.00
2023-02-11T13:01:35.660Z,29.70
2023-02-11T13:04:13.836Z,28.08
2023-02-11T13:06:50.177Z,28.73
2023-02-11T13:09:23.640Z,32.03
2023-02-11T13:11:56.303Z,27.63
2023-02-11T13:14:28.621Z,28.08
2023-02-11T13:16:58.820Z,28.63
2023-02-11T13:19:33.838Z,31.35
2023-02-11T13:22:11.619Z,31.20
2023-02-11T13:24:45.430Z,31.52
2023-02-11T13:27:25.820Z,32.63
2023-02-11T13:30:23.360Z,38.55
2023-02-11T13:33:08.114Z,38.22
2023-02-11T13:35:37.380Z,38.08
2023-02-11T13:38:09.121Z,32.50
2023-02-11T13:40:39.720Z,35.22
2023-02-11T13:43:22.485Z,40.92
2023-02-11T13:45:52.612Z,38.88
2023-02-11T13:48:26.011Z,38.17
2023-02-11T13:50:56.952Z,36.70
2023-02-11T13:53:25.548Z,39.53
2023-02-11T13:56:06.193Z,35.28
2023-02-11T13:58:40.071Z,37.50
2023-02-11T14:01:11.784Z,35.80
2023-02-11T14:04:37.802Z,36.35
2023-02-11T14:07:46.097Z,33.03
2023-02-11T14:10:52.334Z,35.78
2023-02-11T14:13:25.767Z,39.38
2023-02-11T14:16:10.212Z,35.03
2023-02-11T14:18:41.384Z,36.13
2023-02-11T14:21:17.122Z,39.88
2023-02-11T14:26:40.932Z,36.88
2023-02-11T14:29:18.202Z,35.95
2023-02-11T14:31:56.385Z,33.17
2023-02-11T14:34:48.635Z,38.78
2023-02-11T14:37:31.493Z,36.33
2023-02-11T14:40:06.603Z,38.63
2023-02-11T14:42:38.302Z,37.65
2023-02-11T14:45:10.926Z,39.80
2023-02-11T14:47:44.549Z,44.97
2023-02-11T14:50:27.426Z,43.58
2023-02-11T14:53:00.451Z,33.00
2023-02-11T14:55:33.210Z,37.38
2023-02-11T14:58:16.997Z,42.80
2023-02-11T15:00:50.983Z,37.88
2023-02-11T15:03:39.710Z,40.35
2023-02-11T15:06:18.447Z,40.25
2023-02-11T15:08:54.135Z,37.90
2023-02-11T15:11:27.180Z,40.45
2023-02-11T15:14:09.541Z,38.92
2023-02-11T15:16:55.544Z,38.08
2023-02-11T15:19:47.401Z,38.75
2023-02-11T15:22:25.936Z,38.80
2023-02-11T15:25:24.084Z,36.55
2023-02-11T15:27:59.849Z,34.72
2023-02-11T15:33:03.236Z,35.47
2023-02-11T15:38:44.560Z,41.45
2023-02-11T15:41:39.905Z,36.30
2023-02-11T15:44:35.743Z,37.75
2023-02-11T15:50:27.422Z,48.13
2023-02-11T15:53:22.451Z,35.85
2023-02-11T15:56:11.904Z,36.55
2023-02-11T15:58:51.519Z,38.88
2023-02-11T16:01:21.387Z,34.38
2023-02-11T16:03:54.680Z,43.97
2023-02-11T16:06:53.074Z,41.33
2023-02-11T16:10:07.189Z,38.72
2023-02-11T16:13:06.214Z,34.53
2023-02-11T16:16:05.693Z,37.30
2023-02-11T16:18:45.274Z,41.60
2023-02-11T16:21:39.624Z,39.97
2023-02-11T16:24:22.663Z,38.03
2023-02-11T16:27:14.199Z,38.83
2023-02-11T16:29:51.868Z,36.25
2023-02-11T16:32:32.719Z,43.78
2023-02-11T16:35:27.943Z,44.58
2023-02-11T16:38:11.722Z,40.15
2023-02-11T16:41:02.954Z,42.38
2023-02-11T16:43:37.815Z,45.30
2023-02-11T16:46:26.233Z,46.80
2023-02-11T16:49:10.373Z,41.72
2023-02-11T16:51:42.390Z,68.45
2023-02-11T16:54:26.302Z,44.25
2023-02-11T16:57:19.349Z,41.95
2023-02-11T16:59:51.166Z,41.95
2023-02-11T17:02:29.485Z,41.45
2023-02-11T17:05:53.144Z,40.42
2023-02-11T17:08:39.979Z,38.65
2023-02-11T17:12:24.993Z,40.47
2023-02-11T17:17:22.555Z,39.38
2023-02-11T17:22:35.419Z,39.92
2023-02-11T17:25:21.266Z,42.08
2023-02-11T17:27:57.122Z,44.20
2023-02-11T17:30:35.586Z,44.05
2023-02-11T17:33:08.624Z,42.83
2023-02-11T17:35:42.761Z,46.42
2023-02-11T17:38:13.180Z,46.05
2023-02-11T17:40:41.747Z,41.50
2023-02-11T17:43:26.804Z,40.50
2023-02-11T17:46:28.910Z,42.40
2023-02-11T17:49:03.573Z,42.28
2023-02-11T17:51:49.988Z,43.60
2023-02-11T17:54:37.894Z,38.72
2023-02-11T17:57:14.090Z,43.50
2023-02-11T18:00:13.928Z,45.25
2023-02-11T18:02:52.078Z,46.55
2023-02-11T18:05:32.291Z,45.70
2023-02-11T18:08:31.018Z,44.17
2023-02-11T18:11:08.882Z,43.38
2023-02-11T18:14:15.063Z,43.22
2023-02-11T18:16:51.728Z,37.60
2023-02-11T18:19:24.799Z,47.63
2023-02-11T18:21:54.404Z,67.82
2023-02-11T18:24:24.883Z,45.63
2023-02-11T18:26:56.286Z,48.22
2023-02-11T18:29:25.915Z,44.10
2023-02-11T18:32:00.089Z,46.85
2023-02-11T18:34:29.240Z,42.97
2023-02-11T18:37:01.911Z,45.95
2023-02-11T18:39:30.746Z,47.05
2023-02-11T18:42:16.273Z,50.25
2023-02-11T18:44:47.979Z,46.00
2023-02-11T18:47:17.431Z,46.60
2023-02-11T18:49:47.800Z,42.28
2023-02-11T18:52:18.912Z,44.53
2023-02-11T18:54:47.980Z,46.80
2023-02-11T18:57:17.962Z,42.63
2023-02-11T18:59:48.727Z,45.50
2023-02-11T19:02:17.710Z,41.78
2023-02-11T19:04:48.869Z,39.65
2023-02-11T19:07:25.748Z,42.15
2023-02-11T19:09:57.869Z,41.17
2023-02-11T19:12:29.765Z,42.60
2023-02-11T19:15:00.997Z,46.28
2023-02-11T19:17:30.646Z,44.65
2023-02-11T19:19:59.866Z,41.47
2023-02-11T19:22:30.936Z,46.22
2023-02-11T19:25:03.099Z,53.22
2023-02-11T19:27:38.420Z,45.60
2023-02-11T19:32:41.643Z,45.53
2023-02-11T19:35:11.767Z,45.05
2023-02-11T19:37:40.093Z,43.35
2023-02-11T19:40:09.627Z,45.00
2023-02-11T19:42:46.961Z,49.28
2023-02-11T19:45:16.164Z,43.90
2023-02-11T19:47:44.632Z,49.67
2023-02-11T19:50:13.411Z,55.40
2023-02-11T19:52:41.864Z,53.20
2023-02-11T19:55:10.672Z,47.45
2023-02-11T19:57:39.884Z,48.80
2023-02-11T20:00:11.003Z,50.88
2023-02-11T20:02:42.122Z,46.65
2023-02-11T20:05:11.854Z,54.80
2023-02-11T20:07:42.824Z,57.20
2023-02-11T20:10:13.413Z,62.08
2023-02-11T20:12:52.231Z,51.28
2023-02-11T20:15:23.138Z,49.88
2023-02-11T20:17:52.248Z,44.58
2023-02-11T20:20:22.093Z,43.40
2023-02-11T20:22:52.051Z,44.20
2023-02-11T20:25:21.448Z,45.53
2023-02-11T20:27:54.233Z,50.92
2023-02-11T20:30:23.007Z,47.40
2023-02-11T20:32:54.367Z,51.83
2023-02-11T20:35:23.620Z,42.95
2023-02-11T20:37:53.492Z,43.97
2023-02-11T20:40:24.965Z,47.85
2023-02-11T20:42:58.327Z,45.63
2023-02-11T20:45:27.635Z,47.10
2023-02-11T20:47:57.642Z,50.13
2023-02-11T20:50:27.342Z,57.28
2023-02-11T20:52:59.620Z,99.75
2023-02-11T20:55:28.349Z,219.82
2023-02-11T20:57:59.559Z,57.70
2023-02-11T21:00:28.660Z,58.00
2023-02-11T21:03:00.255Z,75.53
2023-02-11T21:05:32.016Z,58.72
2023-02-11T21:08:01.051Z,60.35
2023-02-11T21:10:31.667Z,58.30
2023-02-11T21:13:06.957Z,55.88
2023-02-11T21:15:36.912Z,52.40
2023-02-11T21:18:08.574Z,57.45
2023-02-11T21:20:38.216Z,58.65
2023-02-11T21:23:17.676Z,55.70
2023-02-11T21:25:47.997Z,53.03
2023-02-11T21:28:18.046Z,48.88
2023-02-11T21:30:47.150Z,50.05
2023-02-11T21:33:16.739Z,49.97
2023-02-11T21:35:45.511Z,52.03
2023-02-11T21:38:14.181Z,47.92
2023-02-11T21:40:44.715Z,48.40
2023-02-11T21:43:16.011Z,49.78
2023-02-11T21:45:52.653Z,49.72
2023-02-11T21:48:23.963Z,45.33
2023-02-11T21:50:53.086Z,48.35
2023-02-11T21:53:21.415Z,47.80
2023-02-11T21:55:51.390Z,50.45
2023-02-11T21:58:25.743Z,47.30
2023-02-11T22:00:56.616Z,43.70
2023-02-11T22:03:27.397Z,48.38
2023-02-11T22:06:01.114Z,48.80
2023-02-11T22:08:33.171Z,50.22
2023-02-11T22:11:07.652Z,48.40
2023-02-11T22:13:38.555Z,42.78
2023-02-11T22:16:11.343Z,46.88
2023-02-11T22:18:46.577Z,45.63
2023-02-11T22:21:17.325Z,42.00
2023-02-11T22:23:50.088Z,42.88
2023-02-11T22:26:27.885Z,47.35
2023-02-11T22:29:00.049Z,49.03
2023-02-11T22:31:32.189Z,47.88
2023-02-11T22:34:08.647Z,52.55
2023-02-11T22:36:46.956Z,49.50
2023-02-11T22:39:17.611Z,56.92
2023-02-11T22:41:47.355Z,55.05
2023-02-11T22:44:20.083Z,56.38
2023-02-11T22:46:51.391Z,46.83
2023-02-11T22:49:23.738Z,55.97
2023-02-11T22:51:52.571Z,50.47
2023-02-11T22:54:21.994Z,49.67
2023-02-11T22:56:52.720Z,55.30
2023-02-11T22:59:21.949Z,55.67
2023-02-11T23:01:57.904Z,54.55
2023-02-11T23:04:26.717Z,47.75
2023-02-11T23:06:57.271Z,46.28
2023-02-11T23:09:25.155Z,50.65
2023-02-11T23:11:54.337Z,48.83
2023-02-11T23:14:22.608Z,47.20
2023-02-11T23:16:51.813Z,50.20
2023-02-11T23:19:21.032Z,52.33
2023-02-11T23:21:52.489Z,50.67
2023-02-11T23:24:20.380Z,58.08
2023-02-11T23:26:48.269Z,50.40
2023-02-11T23:29:16.394Z,54.08
2023-02-11T23:31:46.588Z,50.17
2023-02-11T23:34:17.128Z,51.03
2023-02-11T23:36:46.415Z,48.47
2023-02-11T23:39:15.999Z,49.10
2023-02-11T23:41:44.030Z,51.70
2023-02-11T23:44:11.904Z,49.33
2023-02-11T23:46:40.144Z,49.03
2023-02-11T23:49:08.011Z,52.47
2023-02-11T23:51:35.820Z,53.13
2023-02-11T23:54:05.370Z,49.03
2023-02-11T23:56:33.396Z,46.58
2023-02-11T23:59:01.297Z,52.20
